createdAt,value
2019-02-18T00:00:37.883Z,2.94
2019-02-18T00:03:07.802Z,3.01
2019-02-18T00:05:36.479Z,3.05
2019-02-18T00:08:05.412Z,3.04
2019-02-18T00:10:34.031Z,3.04
2019-02-18T00:13:02.713Z,3.09
2019-02-18T00:15:31.403Z,2.98
2019-02-18T00:18:00.089Z,3.04
2019-02-18T00:20:28.764Z,3.03
2019-02-18T00:22:57.439Z,3.03
2019-02-18T00:25:26.113Z,3.05
2019-02-18T00:27:54.772Z,3.04
2019-02-18T00:30:23.457Z,3.12
2019-02-18T00:32:52.161Z,3.08
2019-02-18T00:35:20.791Z,2.92
2019-02-18T00:37:49.538Z,2.80
2019-02-18T00:40:18.236Z,2.74
2019-02-18T00:42:46.897Z,2.73
2019-02-18T00:45:15.571Z,2.85
2019-02-18T00:47:44.359Z,2.76
2019-02-18T00:50:13.025Z,2.63
2019-02-18T00:52:41.704Z,2.66
2019-02-18T00:55:10.362Z,2.57
2019-02-18T00:57:39.047Z,2.45
2019-02-18T01:00:11.085Z,2.42
2019-02-18T01:02:39.780Z,2.40
2019-02-18T01:05:08.663Z,2.28
2019-02-18T01:07:37.359Z,2.37
2019-02-18T01:10:08.920Z,2.20
2019-02-18T01:12:37.584Z,2.08
2019-02-18T01:15:09.397Z,2.09
2019-02-18T01:17:38.075Z,1.99
2019-02-18T01:20:09.600Z,1.92
2019-02-18T01:22:38.296Z,1.64
2019-02-18T01:25:08.866Z,1.86
2019-02-18T01:27:37.535Z,1.84
2019-02-18T01:30:09.378Z,1.93
2019-02-18T01:32:38.072Z,1.91
2019-02-18T01:35:06.936Z,1.84
2019-02-18T01:37:44.912Z,1.85
2019-02-18T01:40:08.952Z,1.83
2019-02-18T01:42:37.624Z,1.71
2019-02-18T01:45:09.136Z,1.65
2019-02-18T01:47:37.789Z,1.67
2019-02-18T01:50:09.672Z,1.70
2019-02-18T01:52:38.367Z,1.68
2019-02-18T01:55:08.145Z,1.68
2019-02-18T01:57:36.806Z,1.70
2019-02-18T02:00:08.891Z,1.67
2019-02-18T02:02:37.560Z,1.50
2019-02-18T02:05:06.635Z,1.42
2019-02-18T02:07:35.406Z,1.38
2019-02-18T02:10:05.469Z,1.39
2019-02-18T02:12:34.154Z,1.38
2019-02-18T02:15:02.831Z,1.57
2019-02-18T02:17:31.494Z,1.52
2019-02-18T02:20:00.360Z,1.54
2019-02-18T02:22:29.020Z,1.49
2019-02-18T02:24:57.707Z,1.56
2019-02-18T02:27:26.383Z,1.47
2019-02-18T02:29:55.047Z,1.52
2019-02-18T02:32:23.750Z,1.56
2019-02-18T02:34:52.416Z,1.58
2019-02-18T02:37:21.091Z,1.58
2019-02-18T02:39:49.760Z,1.54
2019-02-18T02:42:18.427Z,1.54
2019-02-18T02:44:47.097Z,1.52
2019-02-18T02:47:15.756Z,1.51
2019-02-18T02:49:44.465Z,1.38
2019-02-18T02:52:13.138Z,1.43
2019-02-18T02:54:41.872Z,1.30
2019-02-18T02:57:10.538Z,1.36
2019-02-18T02:59:39.206Z,1.41
2019-02-18T03:02:07.880Z,1.43
2019-02-18T03:04:36.538Z,1.37
2019-02-18T03:07:05.210Z,1.36
2019-02-18T03:09:33.916Z,1.42
2019-02-18T03:12:02.594Z,1.40
2019-02-18T03:14:31.411Z,1.39
2019-02-18T03:17:00.029Z,1.35
2019-02-18T03:19:28.720Z,1.34
2019-02-18T03:21:57.398Z,1.29
2019-02-18T03:24:26.072Z,1.19
2019-02-18T03:26:54.734Z,1.17
2019-02-18T03:29:28.920Z,1.23
2019-02-18T03:31:57.601Z,1.11
2019-02-18T03:34:29.503Z,1.20
2019-02-18T03:36:58.169Z,1.15
2019-02-18T03:39:26.841Z,1.11
2019-02-18T03:41:55.520Z,1.10
2019-02-18T03:44:24.222Z,1.08
2019-02-18T03:46:52.894Z,0.98
2019-02-18T03:49:21.603Z,0.98
2019-02-18T03:51:50.298Z,0.96
2019-02-18T03:54:18.991Z,0.94
2019-02-18T03:56:47.654Z,0.93
2019-02-18T03:59:16.320Z,0.98
2019-02-18T04:01:44.996Z,0.90
2019-02-18T04:04:13.651Z,0.86
2019-02-18T04:06:42.337Z,0.75
2019-02-18T04:09:11.013Z,0.78
2019-02-18T04:11:39.685Z,0.71
2019-02-18T04:14:08.353Z,0.72
2019-02-18T04:16:37.026Z,0.69
2019-02-18T04:19:05.700Z,0.77
2019-02-18T04:21:34.406Z,0.79
2019-02-18T04:24:03.092Z,0.83
2019-02-18T04:26:31.776Z,0.97
2019-02-18T04:29:00.473Z,1.04
2019-02-18T04:31:29.138Z,1.15
2019-02-18T04:33:57.793Z,1.22
2019-02-18T04:36:26.492Z,1.25
2019-02-18T04:38:55.158Z,1.29
2019-02-18T04:41:23.826Z,1.26
2019-02-18T04:43:52.543Z,1.22
2019-02-18T04:46:21.300Z,1.15
2019-02-18T04:48:49.972Z,1.08
2019-02-18T04:51:18.686Z,1.13
2019-02-18T04:53:47.350Z,1.08
2019-02-18T04:56:16.031Z,0.99
2019-02-18T04:58:44.703Z,0.85
2019-02-18T05:01:13.373Z,0.96
2019-02-18T05:03:42.061Z,0.85
2019-02-18T05:06:10.807Z,0.84
2019-02-18T05:08:39.487Z,0.87
2019-02-18T05:11:08.176Z,0.84
2019-02-18T05:13:36.844Z,0.88
2019-02-18T05:16:05.508Z,1.03
2019-02-18T05:18:34.192Z,1.06
2019-02-18T05:21:02.856Z,1.05
2019-02-18T05:23:31.522Z,1.00
2019-02-18T05:26:00.207Z,0.99
2019-02-18T05:28:28.882Z,0.89
2019-02-18T05:30:57.586Z,0.86
2019-02-18T05:33:26.245Z,0.88
2019-02-18T05:35:55.898Z,0.86
2019-02-18T05:38:25.010Z,1.06
2019-02-18T05:40:53.668Z,1.04
2019-02-18T05:43:22.354Z,1.03
2019-02-18T05:45:51.024Z,1.08
2019-02-18T05:48:19.700Z,1.13
2019-02-18T05:50:48.376Z,1.28
2019-02-18T05:53:17.064Z,1.36
2019-02-18T05:55:45.735Z,1.45
2019-02-18T05:58:14.444Z,1.57
2019-02-18T06:00:43.256Z,1.66
2019-02-18T06:03:11.929Z,1.75
2019-02-18T06:05:40.593Z,1.89
2019-02-18T06:08:09.278Z,1.98
2019-02-18T06:10:37.949Z,2.00
2019-02-18T06:13:06.614Z,2.21
2019-02-18T06:15:35.287Z,2.43
2019-02-18T06:18:03.951Z,2.77
2019-02-18T06:20:32.693Z,3.05
2019-02-18T06:23:01.447Z,3.02
2019-02-18T06:25:30.246Z,3.00
2019-02-18T06:27:58.958Z,3.19
2019-02-18T06:30:27.641Z,3.56
2019-02-18T06:32:56.301Z,4.01
2019-02-18T06:35:25.004Z,4.24
2019-02-18T06:37:53.679Z,4.50
2019-02-18T06:40:22.379Z,4.53
2019-02-18T06:42:51.138Z,4.29
2019-02-18T06:45:30.200Z,4.01
2019-02-18T06:48:00.472Z,3.92
2019-02-18T06:50:29.277Z,3.86
2019-02-18T06:52:58.008Z,3.84
2019-02-18T06:55:26.858Z,3.94
2019-02-18T06:57:59.836Z,3.99
2019-02-18T07:00:30.081Z,4.07
2019-02-18T07:03:00.363Z,4.09
2019-02-18T07:05:43.005Z,4.22
2019-02-18T07:08:13.344Z,4.09
2019-02-18T07:10:43.599Z,4.10
2019-02-18T07:13:13.354Z,4.14
2019-02-18T07:15:42.029Z,4.15
2019-02-18T07:18:10.739Z,4.26
2019-02-18T07:20:39.348Z,4.36
2019-02-18T07:23:08.113Z,4.25
2019-02-18T07:25:36.876Z,4.28
2019-02-18T07:28:05.551Z,4.45
2019-02-18T07:30:34.287Z,4.58
2019-02-18T07:33:03.621Z,4.69
2019-02-18T07:35:34.104Z,4.77
2019-02-18T07:38:02.782Z,4.81
2019-02-18T07:40:31.543Z,4.84
2019-02-18T07:43:01.723Z,4.83
2019-02-18T07:45:30.409Z,4.89
2019-02-18T07:47:59.086Z,5.08
2019-02-18T07:50:27.866Z,5.20
2019-02-18T07:52:56.621Z,5.30
2019-02-18T07:55:25.309Z,5.41
2019-02-18T07:57:53.988Z,5.50
2019-02-18T08:00:22.906Z,5.55
2019-02-18T08:02:51.680Z,5.44
2019-02-18T08:05:20.462Z,5.48
2019-02-18T08:07:49.163Z,5.58
2019-02-18T08:10:17.869Z,5.66
2019-02-18T08:12:46.542Z,5.66
2019-02-18T08:15:15.205Z,5.77
2019-02-18T08:17:43.947Z,5.78
2019-02-18T08:20:12.842Z,5.81
2019-02-18T08:22:41.534Z,5.86
2019-02-18T08:25:12.566Z,5.96
2019-02-18T08:27:41.389Z,6.05
2019-02-18T08:30:13.062Z,6.27
2019-02-18T08:32:41.737Z,6.37
2019-02-18T08:35:10.605Z,6.49
2019-02-18T08:37:39.398Z,6.43
2019-02-18T08:40:09.839Z,6.53
2019-02-18T08:42:38.534Z,6.74
2019-02-18T08:45:12.317Z,6.97
2019-02-18T08:47:42.141Z,7.09
2019-02-18T08:50:12.698Z,7.17
2019-02-18T08:52:41.584Z,7.40
2019-02-18T08:55:17.056Z,7.60
2019-02-18T08:57:45.935Z,7.62
2019-02-18T09:00:17.030Z,7.78
2019-02-18T09:02:45.789Z,7.85
2019-02-18T09:05:14.681Z,8.01
2019-02-18T09:07:44.019Z,8.08
2019-02-18T09:10:14.520Z,8.21
2019-02-18T09:12:43.540Z,8.31
2019-02-18T09:15:14.055Z,8.37
2019-02-18T09:17:42.761Z,8.52
2019-02-18T09:20:13.993Z,8.67
2019-02-18T09:23:02.361Z,8.80
2019-02-18T09:25:32.735Z,8.82
2019-02-18T09:28:01.525Z,8.91
2019-02-18T09:30:31.831Z,9.03
2019-02-18T09:33:00.643Z,9.30
2019-02-18T09:35:29.756Z,12.72
2019-02-18T09:37:58.433Z,16.94
2019-02-18T09:40:27.238Z,19.40
2019-02-18T09:42:56.214Z,20.02
2019-02-18T09:45:25.235Z,18.91
2019-02-18T09:47:54.453Z,19.80
2019-02-18T09:50:23.545Z,20.29
2019-02-18T09:52:52.231Z,21.91
2019-02-18T09:55:21.015Z,21.56
2019-02-18T09:57:49.794Z,20.67
2019-02-18T10:00:18.713Z,21.59
2019-02-18T10:02:47.630Z,22.54
2019-02-18T10:05:16.383Z,21.70
2019-02-18T10:07:45.137Z,19.21
2019-02-18T10:10:13.827Z,17.32
2019-02-18T10:12:42.542Z,17.20
2019-02-18T10:15:11.918Z,16.39
2019-02-18T10:17:40.676Z,15.38
2019-02-18T10:20:13.659Z,15.26
2019-02-18T10:22:42.416Z,14.70
2019-02-18T10:25:12.805Z,13.71
2019-02-18T10:27:41.624Z,13.44
2019-02-18T10:30:11.323Z,13.45
2019-02-18T10:32:40.010Z,13.57
2019-02-18T10:35:14.847Z,13.44
2019-02-18T10:37:43.637Z,12.95
2019-02-18T10:40:12.722Z,12.97
2019-02-18T10:42:41.435Z,12.89
2019-02-18T10:45:12.111Z,14.55
2019-02-18T10:47:41.547Z,18.94
2019-02-18T10:50:11.586Z,22.28
2019-02-18T10:52:40.300Z,24.29
2019-02-18T10:55:10.623Z,24.18
2019-02-18T10:57:39.848Z,26.53
2019-02-18T11:00:16.597Z,28.68
2019-02-18T11:02:45.738Z,28.08
2019-02-18T11:05:14.749Z,27.02
2019-02-18T11:07:43.581Z,25.32
2019-02-18T11:10:14.344Z,27.39
2019-02-18T11:12:43.037Z,24.76
2019-02-18T11:15:13.241Z,25.82
2019-02-18T11:17:42.415Z,27.08
2019-02-18T11:20:12.871Z,29.16
2019-02-18T11:22:43.110Z,30.67
2019-02-18T11:25:14.832Z,31.50
2019-02-18T11:27:43.540Z,29.91
2019-02-18T11:30:19.654Z,28.39
2019-02-18T11:32:48.352Z,29.20
2019-02-18T11:35:17.404Z,31.13
2019-02-18T11:37:46.125Z,32.02
2019-02-18T11:40:16.570Z,32.43
2019-02-18T11:42:45.394Z,33.02
2019-02-18T11:45:20.204Z,32.88
2019-02-18T11:47:49.520Z,32.99
2019-02-18T11:50:21.285Z,32.41
2019-02-18T11:52:50.619Z,33.30
2019-02-18T11:55:19.529Z,33.99
2019-02-18T11:57:48.304Z,32.73
2019-02-18T12:00:17.534Z,30.32
2019-02-18T12:02:46.710Z,30.84
2019-02-18T12:05:15.705Z,31.28
2019-02-18T12:07:44.760Z,31.21
2019-02-18T12:10:14.099Z,30.72
2019-02-18T12:12:43.216Z,32.46
2019-02-18T12:15:14.052Z,33.04
2019-02-18T12:17:43.067Z,33.44
2019-02-18T12:20:15.981Z,32.20
2019-02-18T12:22:44.823Z,32.77
2019-02-18T12:25:14.733Z,32.39
2019-02-18T12:27:44.241Z,31.70
2019-02-18T12:30:21.049Z,32.68
2019-02-18T12:32:49.873Z,33.22
2019-02-18T12:35:18.643Z,33.55
2019-02-18T12:37:54.956Z,33.50
2019-02-18T12:40:18.028Z,32.70
2019-02-18T12:42:46.899Z,31.42
2019-02-18T12:45:15.917Z,30.94
2019-02-18T12:47:44.605Z,30.94
2019-02-18T12:50:13.950Z,32.65
2019-02-18T12:52:42.896Z,32.63
2019-02-18T12:55:12.300Z,33.22
2019-02-18T12:57:41.057Z,32.26
2019-02-18T13:00:13.939Z,30.17
2019-02-18T13:02:44.694Z,29.68
2019-02-18T13:05:13.984Z,28.85
2019-02-18T13:07:42.760Z,30.05
2019-02-18T13:10:12.217Z,29.41
2019-02-18T13:12:41.538Z,27.93
2019-02-18T13:15:13.112Z,29.27
2019-02-18T13:17:42.808Z,30.60
2019-02-18T13:20:12.042Z,31.30
2019-02-18T13:22:40.845Z,31.84
2019-02-18T13:25:10.688Z,31.37
2019-02-18T13:27:39.380Z,31.36
2019-02-18T13:30:19.477Z,31.81
2019-02-18T13:32:48.316Z,30.00
2019-02-18T13:35:17.787Z,28.79
2019-02-18T13:37:46.579Z,28.90
2019-02-18T13:40:16.769Z,28.97
2019-02-18T13:42:46.170Z,30.22
2019-02-18T13:45:15.306Z,29.85
2019-02-18T13:47:45.109Z,28.73
2019-02-18T13:50:14.987Z,27.56
2019-02-18T13:52:43.770Z,28.84
2019-02-18T13:55:13.759Z,27.51
2019-02-18T13:57:42.979Z,27.20
2019-02-18T14:00:16.373Z,28.37
2019-02-18T14:02:45.145Z,28.32
2019-02-18T14:05:14.251Z,27.56
2019-02-18T14:07:42.942Z,27.36
2019-02-18T14:10:11.889Z,27.48
2019-02-18T14:12:40.841Z,28.35
2019-02-18T14:15:12.267Z,28.71
2019-02-18T14:17:40.964Z,28.19
2019-02-18T14:20:11.996Z,27.80
2019-02-18T14:22:40.959Z,28.55
2019-02-18T14:25:10.952Z,28.50
2019-02-18T14:27:39.651Z,27.59
2019-02-18T14:30:14.761Z,27.20
2019-02-18T14:32:43.734Z,27.20
2019-02-18T14:35:12.582Z,25.41
2019-02-18T14:37:41.370Z,24.97
2019-02-18T14:40:12.743Z,23.98
2019-02-18T14:42:41.410Z,22.08
2019-02-18T14:45:10.899Z,20.47
2019-02-18T14:47:39.590Z,19.00
2019-02-18T14:50:09.653Z,18.08
2019-02-18T14:52:38.389Z,17.70
2019-02-18T14:55:09.112Z,17.32
2019-02-18T14:57:37.868Z,16.99
2019-02-18T15:00:21.348Z,16.59
2019-02-18T15:02:51.455Z,16.28
2019-02-18T15:05:20.389Z,16.00
2019-02-18T15:07:49.278Z,15.70
2019-02-18T15:10:18.202Z,15.34
2019-02-18T15:12:46.904Z,15.10
2019-02-18T15:15:15.976Z,14.73
2019-02-18T15:17:44.763Z,14.44
2019-02-18T15:20:13.489Z,14.10
2019-02-18T15:22:42.246Z,13.90
2019-02-18T15:25:11.748Z,13.52
2019-02-18T15:27:40.436Z,13.23
2019-02-18T15:30:12.613Z,13.05
2019-02-18T15:32:41.393Z,12.75
2019-02-18T15:35:10.237Z,12.48
2019-02-18T15:37:38.976Z,12.00
2019-02-18T15:40:09.969Z,12.08
2019-02-18T15:42:42.148Z,11.72
2019-02-18T15:45:10.098Z,11.57
2019-02-18T15:47:39.239Z,11.50
2019-02-18T15:50:12.936Z,11.41
2019-02-18T15:52:41.710Z,11.28
2019-02-18T15:55:11.408Z,11.04
2019-02-18T15:57:40.189Z,10.91
2019-02-18T16:00:21.072Z,10.88
2019-02-18T16:02:50.272Z,10.81
2019-02-18T16:05:19.501Z,10.66
2019-02-18T16:07:48.278Z,10.49
2019-02-18T16:10:16.993Z,10.42
2019-02-18T16:12:50.735Z,10.46
2019-02-18T16:15:16.419Z,10.36
2019-02-18T16:17:45.672Z,10.28
2019-02-18T16:20:14.857Z,10.14
2019-02-18T16:22:43.660Z,10.08
2019-02-18T16:25:15.260Z,9.96
2019-02-18T16:27:43.934Z,9.90
2019-02-18T16:30:14.708Z,9.85
2019-02-18T16:32:43.748Z,9.65
2019-02-18T16:35:12.549Z,9.60
2019-02-18T16:37:41.904Z,9.45
2019-02-18T16:40:15.944Z,9.33
2019-02-18T16:42:44.760Z,9.27
2019-02-18T16:45:15.142Z,9.18
2019-02-18T16:47:43.908Z,9.03
2019-02-18T16:50:12.828Z,8.83
2019-02-18T16:52:41.497Z,8.76
2019-02-18T16:55:12.262Z,8.50
2019-02-18T16:57:40.950Z,8.81
2019-02-18T17:00:22.190Z,8.73
2019-02-18T17:02:51.136Z,8.64
2019-02-18T17:05:20.157Z,8.66
2019-02-18T17:07:48.830Z,8.73
2019-02-18T17:10:17.508Z,8.78
2019-02-18T17:12:46.558Z,8.77
2019-02-18T17:15:15.234Z,8.68
2019-02-18T17:17:43.943Z,8.64
2019-02-18T17:20:12.600Z,8.50
2019-02-18T17:22:41.457Z,8.51
2019-02-18T17:25:11.930Z,8.63
2019-02-18T17:27:40.610Z,8.58
2019-02-18T17:30:12.212Z,8.55
2019-02-18T17:32:41.008Z,8.41
2019-02-18T17:35:14.353Z,8.29
2019-02-18T17:37:43.032Z,8.23
2019-02-18T17:40:13.007Z,8.10
2019-02-18T17:42:42.103Z,8.05
2019-02-18T17:45:16.205Z,7.91
2019-02-18T17:47:44.873Z,7.75
2019-02-18T17:50:15.518Z,7.66
2019-02-18T17:52:44.258Z,7.58
2019-02-18T17:55:15.599Z,7.50
2019-02-18T17:57:44.271Z,7.46
2019-02-18T18:00:15.689Z,7.44
2019-02-18T18:02:44.373Z,7.31
2019-02-18T18:05:13.366Z,7.23
2019-02-18T18:07:42.107Z,7.12
2019-02-18T18:10:12.476Z,7.02
2019-02-18T18:12:41.167Z,6.74
2019-02-18T18:15:12.481Z,6.99
2019-02-18T18:17:41.204Z,6.98
2019-02-18T18:20:11.970Z,7.01
2019-02-18T18:22:41.308Z,7.06
2019-02-18T18:25:12.516Z,6.96
2019-02-18T18:27:41.206Z,7.01
2019-02-18T18:30:12.615Z,7.14
2019-02-18T18:32:41.323Z,7.20
2019-02-18T18:35:11.775Z,7.37
2019-02-18T18:37:40.490Z,7.39
2019-02-18T18:40:14.701Z,7.36
2019-02-18T18:42:43.406Z,7.31
2019-02-18T18:45:15.615Z,7.20
2019-02-18T18:47:44.483Z,7.08
2019-02-18T18:50:15.843Z,7.01
2019-02-18T18:52:44.882Z,7.03
2019-02-18T18:55:13.552Z,7.02
2019-02-18T18:57:42.228Z,6.97
2019-02-18T19:00:21.694Z,6.92
2019-02-18T19:02:50.362Z,6.83
2019-02-18T19:05:19.414Z,6.87
2019-02-18T19:07:48.117Z,6.85
2019-02-18T19:10:17.467Z,6.80
2019-02-18T19:12:46.138Z,6.55
2019-02-18T19:15:17.095Z,6.61
2019-02-18T19:17:45.786Z,6.58
2019-02-18T19:20:14.815Z,6.49
2019-02-18T19:22:43.502Z,6.37
2019-02-18T19:25:12.884Z,6.33
2019-02-18T19:27:41.643Z,6.09
2019-02-18T19:30:13.285Z,6.21
2019-02-18T19:32:41.976Z,6.17
2019-02-18T19:35:10.669Z,6.14
2019-02-18T19:37:39.358Z,6.06
2019-02-18T19:40:10.741Z,5.95
2019-02-18T19:42:39.449Z,5.85
2019-02-18T19:45:17.015Z,5.81
2019-02-18T19:47:45.721Z,5.77
2019-02-18T19:50:14.392Z,5.67
2019-02-18T19:52:43.070Z,5.51
2019-02-18T19:55:13.038Z,5.41
2019-02-18T19:57:41.703Z,5.38
2019-02-18T20:00:13.280Z,5.65
2019-02-18T20:02:41.951Z,5.66
2019-02-18T20:05:10.920Z,5.69
2019-02-18T20:07:39.601Z,5.68
2019-02-18T20:10:11.037Z,5.74
2019-02-18T20:12:39.827Z,5.71
2019-02-18T20:15:11.255Z,5.76
2019-02-18T20:17:39.918Z,5.77
2019-02-18T20:20:16.551Z,5.71
2019-02-18T20:22:45.223Z,5.65
2019-02-18T20:25:14.107Z,5.59
2019-02-18T20:27:42.750Z,5.47
2019-02-18T20:30:16.326Z,5.44
2019-02-18T20:32:44.988Z,5.45
2019-02-18T20:35:13.766Z,5.47
2019-02-18T20:37:42.439Z,5.39
2019-02-18T20:40:11.944Z,5.30
2019-02-18T20:42:42.456Z,5.24
2019-02-18T20:45:12.444Z,5.25
2019-02-18T20:47:41.422Z,5.11
2019-02-18T20:50:14.534Z,5.21
2019-02-18T20:52:43.199Z,5.21
2019-02-18T20:55:13.581Z,5.00
2019-02-18T20:57:43.336Z,4.91
2019-02-18T21:00:22.661Z,4.89
2019-02-18T21:02:51.325Z,4.88
2019-02-18T21:05:20.175Z,4.88
2019-02-18T21:07:49.234Z,4.96
2019-02-18T21:10:24.285Z,5.08
2019-02-18T21:12:53.070Z,5.13
2019-02-18T21:15:21.733Z,5.18
2019-02-18T21:17:50.399Z,5.11
2019-02-18T21:20:19.077Z,5.19
2019-02-18T21:22:48.128Z,5.21
2019-02-18T21:25:16.802Z,5.22
2019-02-18T21:27:45.473Z,5.17
2019-02-18T21:30:15.446Z,5.11
2019-02-18T21:32:44.107Z,5.03
2019-02-18T21:35:12.785Z,5.08
2019-02-18T21:37:42.011Z,4.99
2019-02-18T21:40:11.841Z,4.99
2019-02-18T21:42:40.528Z,4.95
2019-02-18T21:45:11.987Z,4.85
2019-02-18T21:47:40.693Z,4.85
2019-02-18T21:50:10.663Z,4.74
2019-02-18T21:52:39.618Z,4.77
2019-02-18T21:55:10.186Z,4.63
2019-02-18T21:57:39.216Z,4.49
2019-02-18T22:00:21.130Z,4.55
2019-02-18T22:02:50.213Z,4.46
2019-02-18T22:05:19.361Z,4.35
2019-02-18T22:07:48.510Z,4.23
2019-02-18T22:10:17.292Z,4.43
2019-02-18T22:12:45.956Z,4.36
2019-02-18T22:15:15.679Z,4.22
2019-02-18T22:17:44.585Z,4.31
2019-02-18T22:20:14.459Z,4.30
2019-02-18T22:22:43.149Z,4.27
2019-02-18T22:25:12.919Z,4.25
2019-02-18T22:27:41.698Z,4.07
2019-02-18T22:30:15.752Z,4.07
2019-02-18T22:32:44.514Z,4.08
2019-02-18T22:35:13.598Z,4.14
2019-02-18T22:37:42.502Z,4.16
2019-02-18T22:40:12.679Z,4.18
2019-02-18T22:42:41.651Z,4.17
2019-02-18T22:45:11.853Z,4.22
2019-02-18T22:47:40.584Z,4.21
2019-02-18T22:50:11.002Z,4.12
2019-02-18T22:52:39.752Z,4.00
2019-02-18T22:55:09.969Z,3.95
2019-02-18T22:57:38.723Z,3.89
2019-02-18T23:00:10.329Z,3.89
2019-02-18T23:02:40.408Z,3.93
2019-02-18T23:05:09.088Z,3.85
2019-02-18T23:07:37.812Z,3.76
2019-02-18T23:10:07.255Z,3.65
2019-02-18T23:12:35.939Z,3.74
2019-02-18T23:15:05.716Z,3.72
2019-02-18T23:17:34.405Z,3.68
2019-02-18T23:20:03.070Z,3.66
2019-02-18T23:22:32.065Z,3.64
2019-02-18T23:25:01.538Z,3.58
2019-02-18T23:27:30.318Z,3.49
2019-02-18T23:29:59.035Z,3.44
2019-02-18T23:32:27.730Z,3.41
2019-02-18T23:34:56.563Z,3.45
2019-02-18T23:37:25.842Z,3.38
2019-02-18T23:39:54.528Z,3.33
2019-02-18T23:42:23.219Z,3.27
2019-02-18T23:44:58.995Z,3.32
2019-02-18T23:47:22.342Z,3.38
2019-02-18T23:49:51.075Z,3.32
2019-02-18T23:52:19.745Z,3.27
2019-02-18T23:54:48.445Z,3.19
2019-02-18T23:57:17.142Z,3.15
2019-02-18T23:59:45.807Z,3.25
